createdAt,value
2023-05-20T00:00:46.534Z,99608.00
2023-05-20T00:03:32.121Z,99600.47
2023-05-20T00:06:17.304Z,99606.84
2023-05-20T00:09:02.862Z,99598.53
2023-05-20T00:11:48.411Z,99592.22
2023-05-20T00:14:33.538Z,99589.84
2023-05-20T00:17:18.920Z,99583.50
2023-05-20T00:20:05.544Z,99580.34
2023-05-20T00:22:50.978Z,99586.28
2023-05-20T00:25:36.419Z,99583.13
2023-05-20T00:28:23.847Z,99577.59
2023-05-20T00:31:08.951Z,99578.00
2023-05-20T00:33:54.894Z,99578.41
2023-05-20T00:36:40.032Z,99569.31
2023-05-20T00:39:25.419Z,99572.47
2023-05-20T00:42:11.281Z,99565.78
2023-05-20T00:44:56.733Z,99576.09
2023-05-20T00:47:43.029Z,99580.03
2023-05-20T00:50:28.709Z,99586.38
2023-05-20T00:53:16.096Z,99582.03
2023-05-20T00:56:02.002Z,99583.25
2023-05-20T00:58:47.694Z,99595.13
2023-05-20T01:01:33.247Z,99587.97
2023-05-20T01:04:18.806Z,99591.97
2023-05-20T01:07:06.604Z,99588.78
2023-05-20T01:09:54.239Z,99588.00
2023-05-20T01:12:46.117Z,99591.19
2023-05-20T01:15:31.840Z,99588.03
2023-05-20T01:18:20.798Z,99582.47
2023-05-20T01:21:10.764Z,99592.78
2023-05-20T01:23:56.293Z,99584.88
2023-05-20T01:26:41.603Z,99584.09
2023-05-20T01:29:27.964Z,99582.53
2023-05-20T01:32:28.437Z,99578.16
2023-05-20T01:35:16.121Z,99585.69
2023-05-20T01:38:03.240Z,99588.47
2023-05-20T01:40:49.869Z,99591.63
2023-05-20T01:43:35.261Z,99586.88
2023-05-20T01:46:20.645Z,99591.25
2023-05-20T01:49:07.423Z,99590.06
2023-05-20T01:51:52.717Z,99584.91
2023-05-20T01:54:38.095Z,99584.91
2023-05-20T01:57:24.183Z,99579.00
2023-05-20T02:00:11.264Z,99578.22
2023-05-20T02:02:59.526Z,99577.03
2023-05-20T02:05:44.738Z,99578.59
2023-05-20T02:08:29.972Z,99579.81
2023-05-20T02:11:15.483Z,99575.88
2023-05-20T02:14:00.963Z,99573.88
2023-05-20T02:16:47.420Z,99578.66
2023-05-20T02:19:32.649Z,99582.59
2023-05-20T02:22:18.204Z,99573.50
2023-05-20T02:25:04.076Z,99562.03
2023-05-20T02:27:49.576Z,99567.56
2023-05-20T02:30:34.901Z,99573.50
2023-05-20T02:33:21.541Z,99578.66
2023-05-20T02:36:07.627Z,99572.72
2023-05-20T02:38:56.745Z,99574.72
2023-05-20T02:41:41.947Z,99565.22
2023-05-20T02:44:28.149Z,99560.47
2023-05-20T02:47:14.222Z,99559.69
2023-05-20T02:49:59.872Z,99565.22
2023-05-20T02:52:45.621Z,99541.44
2023-05-20T02:55:35.154Z,99531.53
2023-05-20T02:58:26.245Z,99535.09
2023-05-20T03:01:11.752Z,99534.31
2023-05-20T03:03:57.012Z,99541.47
2023-05-20T03:06:44.511Z,99538.28
2023-05-20T03:09:30.023Z,99543.81
2023-05-20T03:12:15.844Z,99541.47
2023-05-20T03:15:01.385Z,99538.69
2023-05-20T03:17:47.334Z,99540.66
2023-05-20T03:20:33.268Z,99539.09
2023-05-20T03:23:18.548Z,99548.59
2023-05-20T03:26:06.873Z,99555.72
2023-05-20T03:28:52.675Z,99553.34
2023-05-20T03:31:38.575Z,99552.56
2023-05-20T03:34:24.305Z,99564.06
2023-05-20T03:37:10.688Z,99557.34
2023-05-20T03:39:56.490Z,99554.94
2023-05-20T03:42:43.414Z,99553.34
2023-05-20T03:45:29.091Z,99557.28
2023-05-20T03:48:22.207Z,99556.06
2023-05-20T03:51:08.683Z,99564.41
2023-05-20T03:53:54.505Z,99554.50
2023-05-20T03:56:41.116Z,99547.34
2023-05-20T03:59:27.517Z,99547.72
2023-05-20T04:02:14.797Z,99554.03
2023-05-20T04:05:01.644Z,99560.75
2023-05-20T04:07:48.767Z,99555.56
2023-05-20T04:10:35.089Z,99553.97
2023-05-20T04:13:22.095Z,99553.56
2023-05-20T04:16:07.872Z,99559.47
2023-05-20T04:18:53.452Z,99561.47
2023-05-20T04:21:39.498Z,99561.47
2023-05-20T04:24:27.423Z,99559.06
2023-05-20T04:27:16.696Z,99557.03
2023-05-20T04:30:02.475Z,99569.72
2023-05-20T04:32:52.419Z,99564.94
2023-05-20T04:35:42.680Z,99566.09
2023-05-20T04:38:32.595Z,99564.47
2023-05-20T04:41:19.964Z,99566.47
2023-05-20T04:44:06.445Z,99564.84
2023-05-20T04:46:52.520Z,99567.19
2023-05-20T04:49:38.918Z,99562.84
2023-05-20T04:52:30.608Z,99564.00
2023-05-20T04:55:16.140Z,99556.06
2023-05-20T04:58:02.120Z,99558.41
2023-05-20T05:00:47.879Z,99563.16
2023-05-20T05:03:36.568Z,99561.16
2023-05-20T05:06:22.510Z,99555.22
2023-05-20T05:09:08.217Z,99550.44
2023-05-20T05:11:56.540Z,99548.81
2023-05-20T05:14:41.970Z,99547.22
2023-05-20T05:17:28.858Z,99544.81
2023-05-20T05:20:16.431Z,99548.81
2023-05-20T05:23:02.349Z,99551.16
2023-05-20T05:25:52.189Z,99550.75
2023-05-20T05:28:37.423Z,99556.66
2023-05-20T05:31:22.955Z,99556.66
2023-05-20T05:34:08.918Z,99545.56
2023-05-20T05:36:54.443Z,99555.47
2023-05-20T05:39:39.860Z,99551.06
2023-05-20T05:42:25.944Z,99557.81
2023-05-20T05:45:12.280Z,99560.22
2023-05-20T05:47:58.347Z,99566.13
2023-05-20T05:50:46.555Z,99558.19
2023-05-20T05:53:34.238Z,99555.00
2023-05-20T05:56:19.702Z,99552.59
2023-05-20T05:59:06.082Z,99555.75
2023-05-20T06:01:51.595Z,99544.63
2023-05-20T06:04:37.187Z,99550.13
2023-05-20T06:07:23.812Z,99552.50
2023-05-20T06:10:10.853Z,99556.03
2023-05-20T06:12:56.354Z,99556.44
2023-05-20T06:15:42.505Z,99550.13
2023-05-20T06:18:27.802Z,99552.06
2023-05-20T06:24:40.838Z,99553.28
2023-05-20T06:27:27.728Z,99548.53
2023-05-20T06:30:13.279Z,99543.81
2023-05-20T06:32:58.553Z,99538.25
2023-05-20T06:35:44.860Z,99545.00
2023-05-20T06:39:12.805Z,99549.75
2023-05-20T06:42:03.210Z,99542.66
2023-05-20T06:44:53.361Z,99540.31
2023-05-20T06:47:50.121Z,99547.06
2023-05-20T06:50:35.779Z,99537.56
2023-05-20T06:53:22.170Z,99536.75
2023-05-20T06:56:07.782Z,99530.00
2023-05-20T06:58:53.367Z,99528.00
2023-05-20T07:01:39.599Z,99520.06
2023-05-20T07:04:25.417Z,99513.34
2023-05-20T07:07:12.517Z,99520.47
2023-05-20T07:09:58.191Z,99520.91
2023-05-20T07:12:44.379Z,99513.34
2023-05-20T07:15:30.031Z,99516.91
2023-05-20T07:18:16.473Z,99515.34
2023-05-20T07:21:07.713Z,99517.69
2023-05-20T07:24:11.970Z,99508.16
2023-05-20T07:26:57.430Z,99516.88
2023-05-20T07:29:43.428Z,99509.72
2023-05-20T07:32:29.299Z,99506.56
2023-05-20T07:35:14.878Z,99510.88
2023-05-20T07:38:01.273Z,99511.66
2023-05-20T07:40:46.770Z,99508.09
2023-05-20T07:43:33.128Z,99499.75
2023-05-20T07:46:20.558Z,99502.91
2023-05-20T07:49:06.185Z,99510.03
2023-05-20T07:51:53.211Z,99503.66
2023-05-20T07:54:38.579Z,99499.25
2023-05-20T07:57:24.095Z,99504.03
2023-05-20T08:00:11.959Z,99503.19
2023-05-20T08:03:02.902Z,99494.09
2023-05-20T08:06:04.310Z,99491.69
2023-05-20T08:08:50.254Z,99492.41
2023-05-20T08:11:42.414Z,99487.22
2023-05-20T08:14:28.136Z,99484.78
2023-05-20T08:17:13.701Z,99483.13
2023-05-20T08:19:59.467Z,99479.91
2023-05-20T08:22:44.774Z,99476.25
2023-05-20T08:25:31.318Z,99467.91
2023-05-20T08:28:18.264Z,99467.88
2023-05-20T08:31:05.145Z,99459.47
2023-05-20T08:33:51.513Z,99459.06
2023-05-20T08:36:36.916Z,99456.66
2023-05-20T08:39:23.402Z,99457.44
2023-05-20T08:42:11.758Z,99459.03
2023-05-20T08:44:59.386Z,99451.09
2023-05-20T08:47:48.170Z,99442.78
2023-05-20T08:50:33.928Z,99440.00
2023-05-20T08:53:30.050Z,99438.00
2023-05-20T08:56:17.109Z,99441.50
2023-05-20T08:59:04.292Z,99432.75
2023-05-20T09:01:50.348Z,99428.34
2023-05-20T09:04:38.176Z,99428.28
2023-05-20T09:07:29.075Z,99422.69
2023-05-20T09:10:15.236Z,99426.31
2023-05-20T09:13:02.821Z,99423.06
2023-05-20T09:15:48.760Z,99423.84
2023-05-20T09:18:34.582Z,99426.69
2023-05-20T09:21:27.054Z,99421.50
2023-05-20T09:24:12.267Z,99415.88
2023-05-20T09:26:58.697Z,99425.44
2023-05-20T09:29:44.270Z,99432.16
2023-05-20T09:32:30.355Z,99431.75
2023-05-20T09:35:16.333Z,99421.78
2023-05-20T09:38:05.100Z,99425.69
2023-05-20T09:40:51.214Z,99424.06
2023-05-20T09:43:37.474Z,99412.53
2023-05-20T09:46:23.200Z,99397.81
2023-05-20T09:49:11.211Z,99395.84
2023-05-20T09:51:59.784Z,99398.19
2023-05-20T09:54:45.464Z,99393.00
2023-05-20T09:57:31.974Z,99383.88
2023-05-20T10:00:17.952Z,99391.81
2023-05-20T10:03:04.515Z,99391.00
2023-05-20T10:06:21.590Z,99382.31
2023-05-20T10:09:28.800Z,99373.16
2023-05-20T10:12:46.579Z,99371.97
2023-05-20T10:15:44.427Z,99367.97
2023-05-20T10:19:05.649Z,99360.00
2023-05-20T10:21:59.039Z,99371.53
2023-05-20T10:24:44.826Z,99364.84
2023-05-20T10:27:30.103Z,99350.16
2023-05-20T10:30:20.089Z,99353.72
2023-05-20T10:33:07.184Z,99352.16
2023-05-20T10:35:53.860Z,99350.94
2023-05-20T10:38:49.301Z,99356.50
2023-05-20T10:41:34.852Z,99358.97
2023-05-20T10:44:20.207Z,99358.63
2023-05-20T10:49:53.808Z,99355.09
2023-05-20T10:52:51.248Z,99350.00
2023-05-20T10:55:38.703Z,99345.63
2023-05-20T10:58:24.813Z,99345.34
2023-05-20T11:01:11.087Z,99342.97
2023-05-20T11:03:57.857Z,99346.19
2023-05-20T11:06:54.832Z,99340.69
2023-05-20T11:09:49.897Z,99342.31
2023-05-20T11:12:35.561Z,99338.75
2023-05-20T11:15:24.922Z,99332.84
2023-05-20T11:18:12.479Z,99336.81
2023-05-20T11:20:59.264Z,99335.25
2023-05-20T11:23:44.552Z,99330.47
2023-05-20T11:26:29.835Z,99333.66
2023-05-20T11:29:15.187Z,99326.56
2023-05-20T11:32:01.490Z,99313.84
2023-05-20T11:34:52.245Z,99314.22
2023-05-20T11:37:37.663Z,99310.66
2023-05-20T11:40:32.879Z,99311.41
2023-05-20T11:43:25.095Z,99308.19
2023-05-20T11:46:11.797Z,99282.75
2023-05-20T11:48:58.081Z,99283.97
2023-05-20T11:51:45.074Z,99291.88
2023-05-20T11:54:30.277Z,99295.00
2023-05-20T11:57:15.711Z,99282.34
2023-05-20T12:00:01.210Z,99274.00
2023-05-20T12:02:47.482Z,99277.56
2023-05-20T12:05:33.042Z,99270.09
2023-05-20T12:08:18.370Z,99287.13
2023-05-20T12:11:03.995Z,99282.34
2023-05-20T12:13:49.656Z,99276.00
2023-05-20T12:16:36.634Z,99261.31
2023-05-20T12:19:22.156Z,99264.09
2023-05-20T12:22:07.294Z,99262.09
2023-05-20T12:24:54.188Z,99261.25
2023-05-20T12:27:40.640Z,99259.63
2023-05-20T12:30:26.094Z,99242.53
2023-05-20T12:33:11.321Z,99236.97
2023-05-20T12:35:56.579Z,99240.09
2023-05-20T12:38:42.111Z,99229.00
2023-05-20T12:41:27.618Z,99221.06
2023-05-20T12:44:12.926Z,99221.50
2023-05-20T12:46:58.561Z,99214.78
2023-05-20T12:49:44.348Z,99214.78
2023-05-20T12:52:30.154Z,99212.78
2023-05-20T12:55:15.673Z,99203.75
2023-05-20T12:58:01.020Z,99199.41
2023-05-20T13:00:46.769Z,99216.94
2023-05-20T13:03:31.969Z,99210.59
2023-05-20T13:06:17.766Z,99213.78
2023-05-20T13:09:03.393Z,99208.22
2023-05-20T13:11:49.322Z,99211.38
2023-05-20T13:14:34.823Z,99209.78
2023-05-20T13:17:20.104Z,99205.44
2023-05-20T13:20:07.404Z,99205.88
2023-05-20T13:22:53.277Z,99196.75
2023-05-20T13:25:38.774Z,99187.63
2023-05-20T13:28:23.987Z,99195.59
2023-05-20T13:31:09.643Z,99199.66
2023-05-20T13:33:55.294Z,99203.34
2023-05-20T13:36:40.596Z,99203.41
2023-05-20T13:39:25.954Z,99206.63
2023-05-20T13:42:11.381Z,99200.25
2023-05-20T13:44:56.563Z,99194.69
2023-05-20T13:47:41.975Z,99195.50
2023-05-20T13:50:27.656Z,99195.91
2023-05-20T13:53:13.920Z,99180.81
2023-05-20T13:56:00.081Z,99189.94
2023-05-20T13:58:45.907Z,99191.91
2023-05-20T14:01:33.424Z,99182.03
2023-05-20T14:04:19.009Z,99175.25
2023-05-20T14:07:07.693Z,99176.47
2023-05-20T14:09:54.706Z,99178.47
2023-05-20T14:12:41.231Z,99183.22
2023-05-20T14:15:30.537Z,99172.13
2023-05-20T14:18:17.032Z,99172.13
2023-05-20T14:21:02.419Z,99172.13
2023-05-20T14:23:47.809Z,99170.56
2023-05-20T14:26:34.125Z,99166.19
2023-05-20T14:29:19.674Z,99157.88
2023-05-20T14:32:05.928Z,99155.81
2023-05-20T14:34:53.712Z,99155.44
2023-05-20T14:37:39.034Z,99142.72
2023-05-20T14:40:24.634Z,99137.41
2023-05-20T14:43:10.283Z,99135.41
2023-05-20T14:45:55.972Z,99142.50
2023-05-20T14:48:41.453Z,99137.69
2023-05-20T14:51:26.883Z,99142.03
2023-05-20T14:54:12.302Z,99144.38
2023-05-20T14:56:57.583Z,99147.94
2023-05-20T14:59:43.262Z,99155.03
2023-05-20T15:02:28.455Z,99145.88
2023-05-20T15:05:14.643Z,99140.69
2023-05-20T15:08:00.291Z,99152.16
2023-05-20T15:10:46.147Z,99144.19
2023-05-20T15:13:31.811Z,99127.88
2023-05-20T15:16:19.359Z,99121.09
2023-05-20T15:19:05.218Z,99121.91
2023-05-20T15:21:51.851Z,99118.31
2023-05-20T15:24:37.355Z,99112.34
2023-05-20T15:27:22.665Z,99115.53
2023-05-20T15:30:09.002Z,99115.19
2023-05-20T15:32:54.478Z,99117.16
2023-05-20T15:35:40.335Z,99117.97
2023-05-20T15:38:25.620Z,99106.50
2023-05-20T15:41:13.518Z,99099.38
2023-05-20T15:43:58.736Z,99103.38
2023-05-20T15:46:44.968Z,99099.38
2023-05-20T15:49:30.447Z,99104.56
2023-05-20T15:52:15.731Z,99096.31
2023-05-20T15:55:00.964Z,99094.31
2023-05-20T15:57:46.249Z,99096.72
2023-05-20T16:00:31.447Z,99090.44
2023-05-20T16:03:16.995Z,99086.91
2023-05-20T16:06:02.688Z,99086.13
2023-05-20T16:08:48.078Z,99092.97
2023-05-20T16:11:33.679Z,99083.03
2023-05-20T16:14:19.188Z,99078.72
2023-05-20T16:17:04.721Z,99079.13
2023-05-20T16:19:50.309Z,99080.34
2023-05-20T16:22:36.024Z,99080.00
2023-05-20T16:25:21.686Z,99083.19
2023-05-20T16:28:06.981Z,99080.81
2023-05-20T16:30:53.347Z,99085.19
2023-05-20T16:33:38.690Z,99083.59
2023-05-20T16:36:24.013Z,99089.59
2023-05-20T16:39:10.125Z,99089.97
2023-05-20T16:41:55.656Z,99091.94
2023-05-20T16:44:41.583Z,99090.28
2023-05-20T16:47:27.160Z,99090.66
2023-05-20T16:50:12.671Z,99089.00
2023-05-20T16:52:59.812Z,99100.50
2023-05-20T16:55:46.009Z,99089.72
2023-05-20T16:58:31.497Z,99087.75
2023-05-20T17:01:16.770Z,99097.59
2023-05-20T17:04:02.258Z,99099.16
2023-05-20T17:06:49.924Z,99099.50
2023-05-20T17:09:36.868Z,99106.63
2023-05-20T17:12:22.478Z,99110.97
2023-05-20T17:15:08.670Z,99106.56
2023-05-20T17:17:54.197Z,99106.16
2023-05-20T17:20:39.628Z,99118.41
2023-05-20T17:23:25.504Z,99124.31
2023-05-20T17:26:11.102Z,99119.88
2023-05-20T17:28:56.453Z,99116.34
2023-05-20T17:31:41.611Z,99120.66
2023-05-20T17:34:26.971Z,99117.47
2023-05-20T17:37:12.366Z,99116.97
2023-05-20T17:39:57.789Z,99115.81
2023-05-20T17:42:43.199Z,99124.09
2023-05-20T17:45:28.541Z,99134.00
2023-05-20T17:48:14.452Z,99126.47
2023-05-20T17:50:59.575Z,99133.28
2023-05-20T17:53:45.155Z,99131.28
2023-05-20T17:56:31.368Z,99134.88
2023-05-20T17:59:17.585Z,99132.09
2023-05-20T18:02:06.547Z,99131.22
2023-05-20T18:04:52.527Z,99129.25
2023-05-20T18:07:37.699Z,99129.25
2023-05-20T18:10:23.592Z,99132.03
2023-05-20T18:13:08.803Z,99141.97
2023-05-20T18:15:54.245Z,99135.59
2023-05-20T18:18:40.136Z,99140.72
2023-05-20T18:21:26.394Z,99149.06
2023-05-20T18:24:12.131Z,99142.72
2023-05-20T18:26:58.005Z,99158.53
2023-05-20T18:29:43.490Z,99151.78
2023-05-20T18:32:28.735Z,99151.34
2023-05-20T18:35:14.784Z,99153.69
2023-05-20T18:38:00.770Z,99158.06
2023-05-20T18:40:46.989Z,99165.53
2023-05-20T18:43:32.204Z,99163.94
2023-05-20T18:46:18.710Z,99170.69
2023-05-20T18:49:04.761Z,99171.81
2023-05-20T18:51:50.616Z,99168.25
2023-05-20T18:54:36.995Z,99173.38
2023-05-20T18:57:22.841Z,99170.22
2023-05-20T19:00:12.656Z,99180.56
2023-05-20T19:02:58.740Z,99180.16
2023-05-20T19:05:44.143Z,99181.72
2023-05-20T19:08:29.395Z,99179.78
2023-05-20T19:11:14.976Z,99189.69
2023-05-20T19:14:00.899Z,99186.91
2023-05-20T19:16:46.484Z,99178.94
2023-05-20T19:19:31.804Z,99185.25
2023-05-20T19:22:17.102Z,99189.63
2023-05-20T19:25:02.578Z,99181.28
2023-05-20T19:27:47.738Z,99191.63
2023-05-20T19:30:33.169Z,99194.06
2023-05-20T19:33:18.563Z,99189.69
2023-05-20T19:36:04.256Z,99189.28
2023-05-20T19:38:50.108Z,99195.59
2023-05-20T19:41:35.552Z,99192.47
2023-05-20T19:44:22.961Z,99198.84
2023-05-20T19:47:08.495Z,99192.47
2023-05-20T19:49:54.269Z,99196.47
2023-05-20T19:52:39.709Z,99192.91
2023-05-20T19:55:24.988Z,99198.47
2023-05-20T19:58:10.811Z,99188.56
2023-05-20T20:00:56.258Z,99196.88
2023-05-20T20:03:41.987Z,99190.97
2023-05-20T20:06:27.388Z,99188.13
2023-05-20T20:09:12.581Z,99188.13
2023-05-20T20:11:58.007Z,99186.53
2023-05-20T20:14:43.280Z,99189.41
2023-05-20T20:17:30.317Z,99189.91
2023-05-20T20:20:16.810Z,99190.69
2023-05-20T20:23:02.260Z,99193.47
2023-05-20T20:25:48.275Z,99189.09
2023-05-20T20:28:33.894Z,99189.91
2023-05-20T20:31:19.627Z,99197.03
2023-05-20T20:34:05.855Z,99194.63
2023-05-20T20:36:51.414Z,99189.47
2023-05-20T20:39:37.289Z,99191.88
2023-05-20T20:42:23.119Z,99176.78
2023-05-20T20:45:08.978Z,99183.13
2023-05-20T20:47:58.008Z,99184.34
2023-05-20T20:50:45.905Z,99182.34
2023-05-20T20:53:31.110Z,99175.56
2023-05-20T20:56:17.454Z,99186.69
2023-05-20T20:59:04.066Z,99186.34
2023-05-20T21:01:54.323Z,99185.97
2023-05-20T21:04:42.525Z,99183.19
2023-05-20T21:07:30.188Z,99177.28
2023-05-20T21:10:17.565Z,99176.50
2023-05-20T21:13:02.650Z,99177.69
2023-05-20T21:15:48.161Z,99177.69
2023-05-20T21:18:33.442Z,99172.53
2023-05-20T21:21:21.526Z,99165.06
2023-05-20T21:24:07.231Z,99164.72
2023-05-20T21:26:52.332Z,99159.56
2023-05-20T21:29:39.681Z,99163.13
2023-05-20T21:32:26.037Z,99158.03
2023-05-20T21:35:11.275Z,99163.56
2023-05-20T21:37:56.824Z,99164.78
2023-05-20T21:40:42.125Z,99163.22
2023-05-20T21:43:27.872Z,99165.22
2023-05-20T21:46:13.688Z,99161.22
2023-05-20T21:48:58.985Z,99163.63
2023-05-20T21:51:44.270Z,99162.44
2023-05-20T21:54:29.279Z,99153.75
2023-05-20T21:57:14.665Z,99164.06
2023-05-20T22:00:00.221Z,99152.56
2023-05-20T22:02:46.260Z,99164.56
2023-05-20T22:05:34.712Z,99167.06
2023-05-20T22:08:20.325Z,99163.09
2023-05-20T22:11:05.549Z,99160.41
2023-05-20T22:13:51.334Z,99159.25
2023-05-20T22:16:36.635Z,99164.09
2023-05-20T22:19:22.360Z,99156.19
2023-05-20T22:22:07.747Z,99156.66
2023-05-20T22:24:53.036Z,99151.91
2023-05-20T22:27:38.802Z,99149.19
2023-05-20T22:30:24.381Z,99156.38
2023-05-20T22:33:09.863Z,99142.91
2023-05-20T22:35:55.045Z,99143.75
2023-05-20T22:38:40.074Z,99139.81
2023-05-20T22:41:26.420Z,99133.91
2023-05-20T22:44:11.667Z,99139.91
2023-05-20T22:46:56.955Z,99136.78
2023-05-20T22:49:42.305Z,99140.72
2023-05-20T22:52:27.814Z,99141.59
2023-05-20T22:55:13.483Z,99131.31
2023-05-20T22:57:58.806Z,99130.97
2023-05-20T23:00:44.579Z,99126.25
2023-05-20T23:03:29.980Z,99133.81
2023-05-20T23:06:15.422Z,99128.66
2023-05-20T23:09:01.064Z,99126.34
2023-05-20T23:11:46.222Z,99130.72
2023-05-20T23:14:31.883Z,99125.16
2023-05-20T23:17:17.360Z,99119.25
2023-05-20T23:20:10.885Z,99125.97
2023-05-20T23:22:56.579Z,99122.06
2023-05-20T23:25:44.257Z,99126.47
2023-05-20T23:28:30.860Z,99130.06
2023-05-20T23:31:16.300Z,99131.66
2023-05-20T23:34:03.703Z,99125.75
2023-05-20T23:36:50.064Z,99118.63
2023-05-20T23:39:35.492Z,99126.59
2023-05-20T23:42:21.040Z,99119.03
2023-05-20T23:45:06.669Z,99115.50
2023-05-20T23:47:52.347Z,99116.69
2023-05-20T23:50:37.641Z,99116.31
2023-05-20T23:53:23.105Z,99109.22
2023-05-20T23:56:09.321Z,99113.19
2023-05-20T23:58:54.804Z,99101.72
